Mr Aries — V7ML4 — position and weather

sailwx.info

Track history (hours):
 
Tides and Currents Weather Stations Pressure Air Temp Water Temp Dewpoint Dewpoint Depression Visibility Wind Speed Wind Dir Waves Ship Positions

Mr Aries

Last reported at 2015-Jul-17 11:25 UTC. Time now 2015-Aug-01 11:48 UTC.
Position N 27°44' W 015°11'.
Warning: this ship's position is 15 days out of date.

Length 183 m; draft 11.8 m.

Type: Ship. MMSI: 538002869.

Date/timePositionNaut miles runAvg speedWind from/ knotsBaromVisibWave heightAir tempDewpointWater temp
2015-Jul-17 11:25N 27°44' W 015°11'1112.9
2015-Jul-17 10:33N 27°54' W 015°06'1312.8
2015-Jul-17 09:33N 28°06' W 015°01'1312.6
2015-Jul-17 08:33N 28°18' W 014°56'1313.1
2015-Jul-17 07:33N 28°31' W 014°52'1313.0
2015-Jul-17 06:33N 28°44' W 014°49'1312.7
2015-Jul-17 05:33N 28°56' W 014°45'1312.6
2015-Jul-17 04:33N 29°08' W 014°41'1312.7
2015-Jul-17 03:33N 29°20' W 014°37'1212.4
2015-Jul-17 02:33N 29°32' W 014°35'1312.6
2015-Jul-17 01:31N 29°45' W 014°31'1713.0
2015-Jul-17 00:13N 30°01' W 014°26'912.9
2015-Jul-16 23:33N 30°09' W 014°23'1312.9
2015-Jul-16 22:33N 30°22' W 014°20'1313.1
2015-Jul-16 21:33N 30°35' W 014°16'1312.9
2015-Jul-16 20:33N 30°47' W 014°12'1312.9
2015-Jul-16 19:33N 30°60' W 014°09'1312.9
2015-Jul-16 18:31N 31°13' W 014°05'1212.7
2015-Jul-16 17:33N 31°25' W 014°01'1412.6
2015-Jul-16 16:28N 31°38' W 013°57'3712.8
2015-Jul-16 13:33N 32°14' W 013°47'1312.6
2015-Jul-16 12:33N 32°26' W 013°43'3712.2
2015-Jul-16 09:29N 33°02' W 013°33'1111.9
2015-Jul-16 08:32N 33°13' W 013°29'1212.0
2015-Jul-16 07:32N 33°25' W 013°25'2512.3
2015-Jul-16 05:29N 33°49' W 013°17'5012.5
2015-Jul-16 01:28N 34°38' W 013°03'1513.1
2015-Jul-16 00:21N 34°52' W 012°58'1112.9
2015-Jul-15 23:30N 35°03' W 012°55'1312.6
2015-Jul-15 22:31N 35°15' W 012°51'1212.8
2015-Jul-15 21:33N 35°27' W 012°47'1312.6
2015-Jul-15 20:33N 35°39' W 012°43'1312.5
2015-Jul-15 19:33N 35°51' W 012°40'1212.5
2015-Jul-15 18:33N 36°03' W 012°36'1312.8
2015-Jul-15 17:33N 36°16' W 012°32'1312.9
2015-Jul-15 16:33N 36°28' W 012°28'1812.6
2015-Jul-15 15:10N 36°45' W 012°23'1412.8
2015-Jul-15 14:05N 36°59' W 012°18'812.8
2015-Jul-15 13:28N 37°06' W 012°16'1312.9
2015-Jul-15 12:28N 37°19' W 012°12'1212.9
2015-Jul-15 11:31N 37°31' W 012°08'2412.4
2015-Jul-15 09:34N 37°54' W 012°01'1312.6
2015-Jul-15 08:32N 38°07' W 011°57'1212.6
2015-Jul-15 07:33N 38°19' W 011°53'1312.8
2015-Jul-15 06:33N 38°31' W 011°49'1412.6
2015-Jul-15 05:29N 38°44' W 011°45'1213.0
2015-Jul-15 04:33N 38°56' W 011°41'1313.0
2015-Jul-15 03:33N 39°09' W 011°36'1313.0
2015-Jul-15 02:33N 39°21' W 011°32'1313.0
2015-Jul-15 01:33N 39°34' W 011°28'1312.5
2015-Jul-15 00:33N 39°46' W 011°24'11212.4
2015-Jul-14 15:33N 41°34' W 010°48'1312.7
2015-Jul-14 14:32N 41°46' W 010°44'1212.5
2015-Jul-14 13:33N 41°58' W 010°40'1312.5
2015-Jul-14 12:33N 42°11' W 010°36'1312.5
2015-Jul-14 11:29N 42°23' W 010°31'  
2015-Jul-12 01:18N 50°33' E 000°20'1013.0
2015-Jul-12 00:33N 50°36' E 000°34'1312.9
2015-Jul-11 23:34N 50°43' E 000°51'2713.0
2015-Jul-11 21:30N 51°01' E 001°22'6 6.7
2015-Jul-11 20:33N 51°05' E 001°30'10 9.7
2015-Jul-11 19:34N 51°12' E 001°42'1110.7
2015-Jul-11 18:34N 51°20' E 001°53'9 8.7
2015-Jul-11 17:33N 51°24' E 002°05'1111.3
2015-Jul-11 16:33N 51°22' E 002°23'1312.3
2015-Jul-11 15:32N 51°22' E 002°43'1010.7
2015-Jul-11 14:34N 51°24' E 002°60'1313.1
2015-Jul-11 13:32N 51°25' E 003°21'1212.4
2015-Jul-11 12:33N 51°26' E 003°40'1110.8
2015-Jul-11 11:33N 51°23' E 003°56'8 7.7
2015-Jul-11 10:33N 51°23' E 004°09'5 5.5
2015-Jul-11 09:33N 51°21' E 004°17'0 0.0
2015-Jul-11 08:33N 51°21' E 004°17'5 4.6
2015-Jul-11 07:34N 51°17' E 004°21'0 0.3
2015-Jul-11 06:14N 51°16' E 004°21'0 0.0
2015-Jul-11 05:26N 51°16' E 004°21'0 0.0
2015-Jul-11 04:32N 51°16' E 004°21'0 0.0
2015-Jul-11 03:26N 51°16' E 004°21'0 0.0
2015-Jul-11 02:32N 51°16' E 004°21'0 0.0
2015-Jul-11 01:32N 51°16' E 004°21'0 0.0
2015-Jul-11 00:29N 51°16' E 004°21'0 0.0
2015-Jul-10 23:26N 51°16' E 004°21'0 0.0
2015-Jul-10 22:32N 51°16' E 004°21'0 0.0
2015-Jul-10 21:29N 51°16' E 004°21'0 0.0
2015-Jul-10 20:26N 51°16' E 004°21'0 0.0
2015-Jul-10 19:26N 51°16' E 004°21'0 0.0
2015-Jul-10 18:32N 51°16' E 004°21'0 0.0
2015-Jul-10 17:32N 51°16' E 004°21'0 0.0
2015-Jul-10 16:32N 51°16' E 004°21'0 0.0
2015-Jul-10 15:32N 51°16' E 004°21'0 0.0
2015-Jul-10 14:32N 51°16' E 004°21'0 0.0
2015-Jul-10 12:32N 51°16' E 004°21'0 0.0
2015-Jul-10 11:26N 51°16' E 004°21'0 0.0
2015-Jul-10 10:29N 51°16' E 004°21'0 0.0
2015-Jul-10 09:29N 51°16' E 004°21'0 0.0
2015-Jul-10 08:32N 51°16' E 004°21'0 0.0
2015-Jul-10 07:29N 51°16' E 004°21'0 0.0
2015-Jul-10 06:32N 51°16' E 004°21'0 0.0
2015-Jul-10 04:32N 51°16' E 004°21'0 0.0
2015-Jul-10 03:32N 51°16' E 004°21'0 0.0
2015-Jul-10 02:32N 51°16' E 004°21'0 0.0
2015-Jul-10 01:29N 51°16' E 004°21'0 0.0
2015-Jul-10 00:26N 51°16' E 004°21'0 0.0
2015-Jul-09 23:32N 51°16' E 004°21'0 0.0
2015-Jul-09 22:26N 51°16' E 004°21'0 0.0
2015-Jul-09 21:29N 51°16' E 004°21'0 0.0
2015-Jul-09 20:29N 51°16' E 004°21'0 0.0
2015-Jul-09 19:32N 51°16' E 004°21'0 0.0
2015-Jul-09 16:26N 51°16' E 004°21'0 0.0
2015-Jul-09 15:26N 51°16' E 004°21'0 0.0
2015-Jul-09 14:32N 51°16' E 004°21'0 0.0
2015-Jul-09 13:32N 51°16' E 004°21'0 0.0
2015-Jul-09 12:32N 51°16' E 004°21'0 0.0
2015-Jul-09 11:32N 51°16' E 004°21'0 0.0
2015-Jul-09 10:11N 51°16' E 004°21'0 0.0
2015-Jul-09 09:32N 51°16' E 004°21'0 0.0
2015-Jul-09 08:29N 51°16' E 004°21'0 0.0
2015-Jul-09 07:23N 51°16' E 004°21'0 0.0
2015-Jul-09 06:26N 51°16' E 004°21'0 0.0
2015-Jul-09 05:26N 51°16' E 004°21'0 0.0
2015-Jul-09 04:20N 51°16' E 004°21'0 0.0
2015-Jul-09 03:32N 51°16' E 004°21'0 0.0
2015-Jul-09 02:29N 51°16' E 004°21'0 0.0
2015-Jul-09 01:32N 51°16' E 004°21'0 0.0
2015-Jul-09 00:32N 51°16' E 004°21'0 0.0
2015-Jul-08 23:23N 51°16' E 004°21'0 0.0
2015-Jul-08 22:23N 51°16' E 004°21'0 0.0
2015-Jul-08 21:11N 51°16' E 004°21'0 0.0
2015-Jul-08 20:20N 51°16' E 004°21'0 0.0
2015-Jul-08 19:29N 51°16' E 004°21'0 0.0
2015-Jul-08 18:32N 51°16' E 004°21'0 0.0
2015-Jul-08 17:32N 51°16' E 004°21'0 0.0
2015-Jul-08 16:29N 51°16' E 004°21'0 0.0
2015-Jul-08 15:26N 51°16' E 004°21'0 0.0
2015-Jul-08 14:29N 51°16' E 004°21'0 0.0
2015-Jul-08 13:32N 51°16' E 004°21'0 0.0
2015-Jul-08 12:29N 51°16' E 004°21'0 0.0
2015-Jul-08 11:26N 51°16' E 004°21'0 0.0
2015-Jul-08 10:32N 51°16' E 004°21'0 0.0
2015-Jul-08 09:32N 51°16' E 004°21'0 0.0
2015-Jul-08 08:29N 51°16' E 004°21'0 0.0
2015-Jul-08 07:29N 51°16' E 004°21'0 0.0
2015-Jul-08 06:26N 51°16' E 004°21'0 0.0
2015-Jul-08 05:32N 51°16' E 004°21'0 0.0
2015-Jul-08 04:32N 51°16' E 004°21'0 0.0
2015-Jul-08 03:32N 51°16' E 004°21'0 0.0
2015-Jul-08 02:32N 51°16' E 004°21'0 0.0
2015-Jul-08 01:20N 51°16' E 004°21'0 0.0
2015-Jul-08 00:29N 51°16' E 004°21'0 0.0
2015-Jul-07 23:17N 51°16' E 004°21'0 0.0
2015-Jul-07 22:32N 51°16' E 004°21'0 0.0
2015-Jul-07 21:23N 51°16' E 004°21'0 0.0
2015-Jul-07 20:29N 51°16' E 004°21'0 0.0
2015-Jul-07 19:20N 51°16' E 004°21'0 0.0
2015-Jul-07 18:32N 51°16' E 004°21'0 0.0
2015-Jul-07 17:29N 51°16' E 004°21'0 0.0
2015-Jul-07 16:14N 51°16' E 004°21'1 1.2
2015-Jul-07 15:31N 51°16' E 004°21'0 0.2
2015-Jul-07 14:31N 51°16' E 004°22'0 0.0
2015-Jul-07 13:31N 51°16' E 004°22'0 0.0
2015-Jul-07 12:31N 51°16' E 004°22'0 0.0
2015-Jul-07 11:28N 51°16' E 004°22'  
Track history (hours):
 
Tides and Currents Weather Stations Pressure Air Temp Water Temp Dewpoint Dewpoint Depression Visibility Wind Speed Wind Dir Waves Ship Positions

Mr Aries

Last reported at 2015-Jul-17 11:25 UTC. Time now 2015-Aug-01 11:48 UTC.
Position N 27°44' W 015°11'.
Warning: this ship's position is 15 days out of date.

Length 183 m; draft 11.8 m.

Type: Ship. MMSI: 538002869.

Date/timePositionNaut miles runAvg speedWind from/ knotsBaromVisibWave heightAir tempDewpointWater temp
2015-Jul-17 11:25N 27°44' W 015°11'1112.9
2015-Jul-17 10:33N 27°54' W 015°06'1312.8
2015-Jul-17 09:33N 28°06' W 015°01'1312.6
2015-Jul-17 08:33N 28°18' W 014°56'1313.1
2015-Jul-17 07:33N 28°31' W 014°52'1313.0
2015-Jul-17 06:33N 28°44' W 014°49'1312.7
2015-Jul-17 05:33N 28°56' W 014°45'1312.6
2015-Jul-17 04:33N 29°08' W 014°41'1312.7
2015-Jul-17 03:33N 29°20' W 014°37'1212.4
2015-Jul-17 02:33N 29°32' W 014°35'1312.6
2015-Jul-17 01:31N 29°45' W 014°31'1713.0
2015-Jul-17 00:13N 30°01' W 014°26'912.9
2015-Jul-16 23:33N 30°09' W 014°23'1312.9
2015-Jul-16 22:33N 30°22' W 014°20'1313.1
2015-Jul-16 21:33N 30°35' W 014°16'1312.9
2015-Jul-16 20:33N 30°47' W 014°12'1312.9
2015-Jul-16 19:33N 30°60' W 014°09'1312.9
2015-Jul-16 18:31N 31°13' W 014°05'1212.7
2015-Jul-16 17:33N 31°25' W 014°01'1412.6
2015-Jul-16 16:28N 31°38' W 013°57'3712.8
2015-Jul-16 13:33N 32°14' W 013°47'1312.6
2015-Jul-16 12:33N 32°26' W 013°43'3712.2
2015-Jul-16 09:29N 33°02' W 013°33'1111.9
2015-Jul-16 08:32N 33°13' W 013°29'1212.0
2015-Jul-16 07:32N 33°25' W 013°25'2512.3
2015-Jul-16 05:29N 33°49' W 013°17'5012.5
2015-Jul-16 01:28N 34°38' W 013°03'1513.1
2015-Jul-16 00:21N 34°52' W 012°58'1112.9
2015-Jul-15 23:30N 35°03' W 012°55'1312.6
2015-Jul-15 22:31N 35°15' W 012°51'1212.8
2015-Jul-15 21:33N 35°27' W 012°47'1312.6
2015-Jul-15 20:33N 35°39' W 012°43'1312.5
2015-Jul-15 19:33N 35°51' W 012°40'1212.5
2015-Jul-15 18:33N 36°03' W 012°36'1312.8
2015-Jul-15 17:33N 36°16' W 012°32'1312.9
2015-Jul-15 16:33N 36°28' W 012°28'1812.6
2015-Jul-15 15:10N 36°45' W 012°23'1412.8
2015-Jul-15 14:05N 36°59' W 012°18'812.8
2015-Jul-15 13:28N 37°06' W 012°16'1312.9
2015-Jul-15 12:28N 37°19' W 012°12'1212.9
2015-Jul-15 11:31N 37°31' W 012°08'2412.4
2015-Jul-15 09:34N 37°54' W 012°01'1312.6
2015-Jul-15 08:32N 38°07' W 011°57'1212.6
2015-Jul-15 07:33N 38°19' W 011°53'1312.8
2015-Jul-15 06:33N 38°31' W 011°49'1412.6
2015-Jul-15 05:29N 38°44' W 011°45'1213.0
2015-Jul-15 04:33N 38°56' W 011°41'1313.0
2015-Jul-15 03:33N 39°09' W 011°36'1313.0
2015-Jul-15 02:33N 39°21' W 011°32'1313.0
2015-Jul-15 01:33N 39°34' W 011°28'1312.5
2015-Jul-15 00:33N 39°46' W 011°24'11212.4
2015-Jul-14 15:33N 41°34' W 010°48'1312.7
2015-Jul-14 14:32N 41°46' W 010°44'1212.5
2015-Jul-14 13:33N 41°58' W 010°40'1312.5
2015-Jul-14 12:33N 42°11' W 010°36'1312.5
2015-Jul-14 11:29N 42°23' W 010°31'  
2015-Jul-12 01:18N 50°33' E 000°20'1013.0
2015-Jul-12 00:33N 50°36' E 000°34'1312.9
2015-Jul-11 23:34N 50°43' E 000°51'2713.0
2015-Jul-11 21:30N 51°01' E 001°22'6 6.7
2015-Jul-11 20:33N 51°05' E 001°30'10 9.7
2015-Jul-11 19:34N 51°12' E 001°42'1110.7
2015-Jul-11 18:34N 51°20' E 001°53'9 8.7
2015-Jul-11 17:33N 51°24' E 002°05'1111.3
2015-Jul-11 16:33N 51°22' E 002°23'1312.3
2015-Jul-11 15:32N 51°22' E 002°43'1010.7
2015-Jul-11 14:34N 51°24' E 002°60'1313.1
2015-Jul-11 13:32N 51°25' E 003°21'1212.4
2015-Jul-11 12:33N 51°26' E 003°40'1110.8
2015-Jul-11 11:33N 51°23' E 003°56'8 7.7
2015-Jul-11 10:33N 51°23' E 004°09'5 5.5
2015-Jul-11 09:33N 51°21' E 004°17'0 0.0
2015-Jul-11 08:33N 51°21' E 004°17'5 4.6
2015-Jul-11 07:34N 51°17' E 004°21'0 0.3
2015-Jul-11 06:14N 51°16' E 004°21'0 0.0
2015-Jul-11 05:26N 51°16' E 004°21'0 0.0
2015-Jul-11 04:32N 51°16' E 004°21'0 0.0
2015-Jul-11 03:26N 51°16' E 004°21'0 0.0
2015-Jul-11 02:32N 51°16' E 004°21'0 0.0
2015-Jul-11 01:32N 51°16' E 004°21'0 0.0
2015-Jul-11 00:29N 51°16' E 004°21'0 0.0
2015-Jul-10 23:26N 51°16' E 004°21'0 0.0
2015-Jul-10 22:32N 51°16' E 004°21'0 0.0
2015-Jul-10 21:29N 51°16' E 004°21'0 0.0
2015-Jul-10 20:26N 51°16' E 004°21'0 0.0
2015-Jul-10 19:26N 51°16' E 004°21'0 0.0
2015-Jul-10 18:32N 51°16' E 004°21'0 0.0
2015-Jul-10 17:32N 51°16' E 004°21'0 0.0
2015-Jul-10 16:32N 51°16' E 004°21'0 0.0
2015-Jul-10 15:32N 51°16' E 004°21'0 0.0
2015-Jul-10 14:32N 51°16' E 004°21'0 0.0
2015-Jul-10 12:32N 51°16' E 004°21'0 0.0
2015-Jul-10 11:26N 51°16' E 004°21'0 0.0
2015-Jul-10 10:29N 51°16' E 004°21'0 0.0
2015-Jul-10 09:29N 51°16' E 004°21'0 0.0
2015-Jul-10 08:32N 51°16' E 004°21'0 0.0
2015-Jul-10 07:29N 51°16' E 004°21'0 0.0
2015-Jul-10 06:32N 51°16' E 004°21'0 0.0
2015-Jul-10 04:32N 51°16' E 004°21'0 0.0
2015-Jul-10 03:32N 51°16' E 004°21'0 0.0
2015-Jul-10 02:32N 51°16' E 004°21'0 0.0
2015-Jul-10 01:29N 51°16' E 004°21'0 0.0
2015-Jul-10 00:26N 51°16' E 004°21'0 0.0
2015-Jul-09 23:32N 51°16' E 004°21'0 0.0
2015-Jul-09 22:26N 51°16' E 004°21'0 0.0
2015-Jul-09 21:29N 51°16' E 004°21'0 0.0
2015-Jul-09 20:29N 51°16' E 004°21'0 0.0
2015-Jul-09 19:32N 51°16' E 004°21'0 0.0
2015-Jul-09 16:26N 51°16' E 004°21'0 0.0
2015-Jul-09 15:26N 51°16' E 004°21'0 0.0
2015-Jul-09 14:32N 51°16' E 004°21'0 0.0
2015-Jul-09 13:32N 51°16' E 004°21'0 0.0
2015-Jul-09 12:32N 51°16' E 004°21'0 0.0
2015-Jul-09 11:32N 51°16' E 004°21'0 0.0
2015-Jul-09 10:11N 51°16' E 004°21'0 0.0
2015-Jul-09 09:32N 51°16' E 004°21'0 0.0
2015-Jul-09 08:29N 51°16' E 004°21'0 0.0
2015-Jul-09 07:23N 51°16' E 004°21'0 0.0
2015-Jul-09 06:26N 51°16' E 004°21'0 0.0
2015-Jul-09 05:26N 51°16' E 004°21'0 0.0
2015-Jul-09 04:20N 51°16' E 004°21'0 0.0
2015-Jul-09 03:32N 51°16' E 004°21'0 0.0
2015-Jul-09 02:29N 51°16' E 004°21'0 0.0
2015-Jul-09 01:32N 51°16' E 004°21'0 0.0
2015-Jul-09 00:32N 51°16' E 004°21'0 0.0
2015-Jul-08 23:23N 51°16' E 004°21'0 0.0
2015-Jul-08 22:23N 51°16' E 004°21'0 0.0
2015-Jul-08 21:11N 51°16' E 004°21'0 0.0
2015-Jul-08 20:20N 51°16' E 004°21'0 0.0
2015-Jul-08 19:29N 51°16' E 004°21'0 0.0
2015-Jul-08 18:32N 51°16' E 004°21'0 0.0
2015-Jul-08 17:32N 51°16' E 004°21'0 0.0
2015-Jul-08 16:29N 51°16' E 004°21'0 0.0
2015-Jul-08 15:26N 51°16' E 004°21'0 0.0
2015-Jul-08 14:29N 51°16' E 004°21'0 0.0
2015-Jul-08 13:32N 51°16' E 004°21'0 0.0
2015-Jul-08 12:29N 51°16' E 004°21'0 0.0
2015-Jul-08 11:26N 51°16' E 004°21'0 0.0
2015-Jul-08 10:32N 51°16' E 004°21'0 0.0
2015-Jul-08 09:32N 51°16' E 004°21'0 0.0
2015-Jul-08 08:29N 51°16' E 004°21'0 0.0
2015-Jul-08 07:29N 51°16' E 004°21'0 0.0
2015-Jul-08 06:26N 51°16' E 004°21'0 0.0
2015-Jul-08 05:32N 51°16' E 004°21'0 0.0
2015-Jul-08 04:32N 51°16' E 004°21'0 0.0
2015-Jul-08 03:32N 51°16' E 004°21'0 0.0
2015-Jul-08 02:32N 51°16' E 004°21'0 0.0
2015-Jul-08 01:20N 51°16' E 004°21'0 0.0
2015-Jul-08 00:29N 51°16' E 004°21'0 0.0
2015-Jul-07 23:17N 51°16' E 004°21'0 0.0
2015-Jul-07 22:32N 51°16' E 004°21'0 0.0
2015-Jul-07 21:23N 51°16' E 004°21'0 0.0
2015-Jul-07 20:29N 51°16' E 004°21'0 0.0
2015-Jul-07 19:20N 51°16' E 004°21'0 0.0
2015-Jul-07 18:32N 51°16' E 004°21'0 0.0
2015-Jul-07 17:29N 51°16' E 004°21'0 0.0
2015-Jul-07 16:14N 51°16' E 004°21'1 1.2
2015-Jul-07 15:31N 51°16' E 004°21'0 0.2
2015-Jul-07 14:31N 51°16' E 004°22'0 0.0
2015-Jul-07 13:31N 51°16' E 004°22'0 0.0
2015-Jul-07 12:31N 51°16' E 004°22'0 0.0
2015-Jul-07 11:28N 51°16' E 004°22'  

Dump ship's entire track history